大館能代空港の過去48時間の天気

大館能代空港 (Odate-Noshiro)

現在時刻: 9/23 09:04 JST (9/23 00:04 UTC) 以下の時間は現地時間です。

過去48時間のMETAR気象情報
時間 風向 風速(m/s) 視程 気温(℃) 湿度(%) 気圧(hPa) 天気現象
23 08:00 2 10km以上 21 88 1010
22 19:00 3 4000m 20 100 1008 弱いしゅう雨 散在した霧 もや
22 18:00 北東 2 1500m 20 100 1009 弱いしゅう雨 散在した霧 もや
22 17:00 不定 1 10km以上 21 100 1009
22 16:00 不定 1 10km以上 21 100 1008 弱いしゅう雨
22 15:00 南南東 2 10km以上 21 100 1008 弱いしゅう雨
22 14:00 南南東 3 6000m 21 94 1008 しゅう雨
22 13:00 不定 1 10km以上 21 94 1008 弱いしゅう雨
22 12:00 不定 1 10km以上 21 94 1009
22 11:00 西北西 3 10km以上 20 100 1009 弱いしゅう雨
22 10:00 不定 1 10km以上 22 78 1009
22 09:00 不定 1 10km以上 21 83 1009
22 08:00 不定 1 10km以上 18 94 1009
21 19:00 不定 1 10km以上 20 88 1012
21 18:00 東南東 1 10km以上 20 78 1011
21 17:00 1 10km以上 25 57 1011
21 16:00 西北西 2 10km以上 27 51 1012
21 15:00 西北西 3 10km以上 27 51 1012
21 14:00 不定 2 10km以上 28 42 1012
21 13:00 南西 3 10km以上 28 45 1013
21 12:00 2 10km以上 26 58 1014
21 11:00 不定 1 10km以上 25 57 1014
21 10:00 不定 1 10km以上 23 65 1015
RJSR 222300Z 36003KT 290V080 9999 FEW010 SCT025 BKN/// 21/19 Q1010
RJSR 221000Z 10006KT 4000 -SHRA BCFG BR FEW001 SCT010 BKN050 20/20 Q1008
RJSR 220900Z 05003KT 320V090 1500 R11/P2000N -SHRA BCFG BR FEW001 SCT002 BKN020 20/20 Q1009
RJSR 220800Z VRB02KT 9999 FEW001 BKN020 21/21 Q1009
RJSR 220700Z VRB01KT 9999 -SHRA FEW003 BKN020 21/21 Q1008
RJSR 220600Z 16004KT 130V200 9999 -SHRA FEW005 SCT020 BKN030 21/21 Q1008
RJSR 220500Z 15006KT 6000 R11/1800D SHRA FEW010 SCT020 BKN025 21/20 Q1008
RJSR 220400Z VRB02KT 9999 -SHRA FEW003 SCT030 BKN040 21/20 Q1008
RJSR 220300Z VRB02KT 9999 FEW010 SCT040 BKN090 21/20 Q1009
RJSR 220200Z 30005KT 250V350 9999 -SHRA FEW010 SCT020 BKN040 20/20 Q1009
RJSR 220100Z VRB02KT 9999 FEW020 BKN040 22/18 Q1009
RJSR 220000Z VRB02KT 9999 FEW030 SCT090 BKN/// 21/18 Q1009
RJSR 212300Z VRB02KT 9999 FEW030 18/17 Q1009
RJSR 211000Z VRB01KT CAVOK 20/18 Q1012
RJSR 210900Z 12002KT CAVOK 20/16 Q1011
RJSR 210800Z 36001KT CAVOK 25/16 Q1011
RJSR 210700Z 29003KT 9999 FEW050 SCT/// 27/16 Q1012
RJSR 210600Z 29006KT 9999 FEW050 SCT/// 27/16 Q1012
RJSR 210500Z VRB04KT 9999 FEW050 SCT080 BKN/// 28/14 Q1012
RJSR 210400Z 23006KT 170V270 9999 FEW050 BKN080 28/15 Q1013
RJSR 210300Z 01003KT 320V110 9999 FEW040 BKN/// 26/17 Q1014
RJSR 210200Z VRB02KT CAVOK 25/16 Q1014
RJSR 210100Z VRB02KT 9999 FEW060 BKN/// 23/16 Q1015